.
WxDataArchive / Data Records for 2015-02-28
2015-02-27 February 2015 2015-03-01

Data Records for Saturday, 28 February 2015

Time	Temp	Chill	HIndex	Humid	Dewpt	 Wind 	HiWind	WindDir	Rain 	Barom
-----	----	-----	------	-----	-----	------	------	-------	-----	-----
00:00	2.6	2.6	2.6	73	-4.0	0	0	---	0.00	30.717 
00:05	2.6	2.6	2.6	73	-4.0	0	0	---	0.00	30.717 
00:10	2.6	2.6	2.6	74	-3.8	0	0	---	0.00	30.717 
00:15	2.6	2.6	2.6	74	-3.8	0	0	---	0.00	30.717 
00:20	2.6	2.6	2.6	74	-3.8	0	0	---	0.00	30.717 
00:25	2.4	2.4	2.4	74	-4.0	0	0	---	0.00	30.717 
00:30	2.4	2.4	2.4	74	-4.0	0	0	---	0.00	30.720 
00:35	2.2	2.2	2.2	75	-3.9	0	0	---	0.00	30.720 
00:40	2.0	2.0	2.0	75	-4.1	0	0	---	0.00	30.720 
00:45	2.0	2.0	2.0	75	-4.1	0	0	---	0.00	30.725 
00:50	1.8	1.8	1.8	75	-4.3	0	0	---	0.00	30.725 
00:55	1.7	1.7	1.7	75	-4.4	0	0	---	0.00	30.725 
01:00	1.5	1.5	1.5	75	-4.6	0	0	---	0.00	30.724 
01:05	1.5	1.5	1.5	76	-4.3	0	0	---	0.00	30.724 
01:10	1.5	1.5	1.5	76	-4.3	0	0	---	0.00	30.724 
01:15	1.5	1.5	1.5	76	-4.3	0	0	---	0.00	30.722 
01:20	1.3	1.3	1.3	76	-4.5	0	0	---	0.00	30.722 
01:25	1.1	1.1	1.1	76	-4.7	0	0	---	0.00	30.722 
01:30	1.1	1.1	1.1	76	-4.7	0	0	---	0.00	30.723 
01:35	1.3	1.3	1.3	77	-4.2	0	0	---	0.00	30.723 
01:40	1.3	1.3	1.3	77	-4.2	0	0	---	0.00	30.723 
01:45	1.5	1.5	1.5	77	-4.0	0	0	---	0.00	30.724 
01:50	1.5	1.5	1.5	77	-4.0	0	0	---	0.00	30.724 
01:55	1.3	1.3	1.3	77	-4.2	0	0	---	0.00	30.724 
02:00	1.1	1.1	1.1	77	-4.4	0	0	---	0.00	30.726 
02:05	0.9	0.9	0.9	77	-4.6	0	0	---	0.00	30.726 
02:10	0.9	0.9	0.9	77	-4.6	0	0	---	0.00	30.726 
02:15	0.9	0.9	0.9	77	-4.6	0	0	---	0.00	30.730 
02:20	0.7	0.7	0.7	77	-4.8	0	0	---	0.00	30.730 
02:25	0.7	0.7	0.7	77	-4.8	0	0	---	0.00	30.730 
02:30	0.7	0.7	0.7	77	-4.8	0	0	---	0.00	30.731 
02:35	0.5	0.5	0.5	77	-5.0	0	0	---	0.00	30.731 
02:40	0.3	0.3	0.3	77	-5.2	0	0	---	0.00	30.731 
02:45	0.3	0.3	0.3	77	-5.2	0	0	---	0.00	30.735 
02:50	0.1	0.1	0.1	77	-5.4	0	0	---	0.00	30.735 
02:55	0.0	0.0	0.0	77	-5.5	0	0	---	0.00	30.735 
03:00	0.0	0.0	0.0	77	-5.5	0	0	---	0.00	30.734 
03:05	-0.2	-0.2	-0.2	77	-5.7	0	0	---	0.00	30.734 
03:10	-0.2	-0.2	-0.2	77	-5.7	0	0	---	0.00	30.734 
03:15	-0.2	-0.2	-0.2	77	-5.7	0	0	---	0.00	30.735 
03:20	-0.2	-0.2	-0.2	77	-5.7	0	0	---	0.00	30.735 
03:25	-0.2	-0.2	-0.2	77	-5.7	0	0	---	0.00	30.735 
03:30	-0.4	-0.4	-0.4	77	-5.9	0	0	---	0.00	30.734 
03:35	-0.4	-0.4	-0.4	77	-5.9	0	0	---	0.00	30.734 
03:40	-0.6	-0.6	-0.6	77	-6.0	0	0	---	0.00	30.734 
03:45	-0.6	-0.6	-0.6	77	-6.0	0	0	---	0.00	30.732 
03:50	-0.6	-0.6	-0.6	77	-6.0	0	0	---	0.00	30.732 
03:55	-0.6	-0.6	-0.6	77	-6.0	0	0	---	0.00	30.732 
04:00	-0.8	-0.8	-0.8	77	-6.2	0	0	---	0.00	30.735 
04:05	-0.8	-0.8	-0.8	77	-6.2	0	0	---	0.00	30.735 
04:10	-1.0	-1.0	-1.0	77	-6.4	0	0	---	0.00	30.735 
04:15	-1.0	-1.0	-1.0	77	-6.4	0	0	---	0.00	30.741 
04:20	-1.0	-1.0	-1.0	77	-6.4	0	0	---	0.00	30.741 
04:25	-1.0	-1.0	-1.0	77	-6.4	0	0	---	0.00	30.741 
04:30	-1.0	-1.0	-1.0	77	-6.4	0	0	---	0.00	30.743 
04:35	-1.2	-1.2	-1.2	77	-6.6	0	0	---	0.00	30.743 
04:40	-1.2	-1.2	-1.2	77	-6.6	0	0	---	0.00	30.743 
04:45	-1.2	-1.2	-1.2	77	-6.6	0	0	---	0.00	30.749 
04:50	-1.2	-1.2	-1.2	77	-6.6	0	0	---	0.00	30.749 
04:55	-1.4	-1.4	-1.4	77	-6.8	0	0	---	0.00	30.749 
05:00	-1.4	-1.4	-1.4	77	-6.8	0	0	---	0.00	30.750 
05:05	-1.4	-1.4	-1.4	77	-6.8	0	0	---	0.00	30.750 
05:10	-1.4	-1.4	-1.4	77	-6.8	0	0	---	0.00	30.750 
05:15	-1.2	-1.2	-1.2	77	-6.6	0	0	---	0.00	30.751 
05:20	-1.2	-1.2	-1.2	77	-6.6	0	0	---	0.00	30.751 
05:25	-1.2	-1.2	-1.2	77	-6.6	0	0	---	0.00	30.751 
05:30	-1.2	-1.2	-1.2	77	-6.6	0	0	---	0.00	30.758 
05:35	-1.2	-1.2	-1.2	77	-6.6	0	0	---	0.00	30.758 
05:40	-1.2	-1.2	-1.2	77	-6.6	0	0	---	0.00	30.758 
05:45	-1.4	-1.4	-1.4	77	-6.8	0	0	---	0.00	30.761 
05:50	-1.4	-1.4	-1.4	77	-6.8	0	0	---	0.00	30.761 
05:55	-1.6	-1.6	-1.6	77	-7.0	0	0	---	0.00	30.761 
06:00	-1.6	-1.6	-1.6	77	-7.0	0	0	---	0.00	30.764 
06:05	-1.8	-1.8	-1.8	77	-7.2	0	0	---	0.00	30.764 
06:10	-1.8	-1.8	-1.8	77	-7.2	0	0	---	0.00	30.764 
06:15	-1.8	-1.8	-1.8	77	-7.2	0	0	---	0.00	30.766 
06:20	-1.8	-1.8	-1.8	77	-7.2	0	0	---	0.00	30.766 
06:25	-1.6	-1.6	-1.6	77	-7.0	0	0	---	0.00	30.766 
06:30	-1.6	-1.6	-1.6	77	-7.0	0	0	---	0.00	30.771 
06:35	-1.4	-1.4	-1.4	77	-6.8	0	0	---	0.00	30.771 
06:40	-1.4	-1.4	-1.4	77	-6.8	0	0	---	0.00	30.771 
06:45	-1.4	-1.4	-1.4	78	-6.6	0	0	---	0.00	30.776 
06:50	-1.2	-1.2	-1.2	78	-6.4	0	0	---	0.00	30.776 
06:55	-1.2	-1.2	-1.2	78	-6.4	0	0	---	0.00	30.776 
07:00	-1.0	-1.0	-1.0	78	-6.2	0	0	---	0.00	30.780 
07:05	-1.0	-1.0	-1.0	78	-6.2	0	0	---	0.00	30.780 
07:10	-1.0	-1.0	-1.0	78	-6.2	0	0	---	0.00	30.780 
07:15	-1.0	-1.0	-1.0	78	-6.2	0	0	---	0.00	30.785 
07:20	-1.0	-1.0	-1.0	77	-6.4	0	0	---	0.00	30.785 
07:25	-1.2	-1.2	-1.2	78	-6.4	0	0	---	0.00	30.785 
07:30	-1.0	-1.0	-1.0	78	-6.2	0	0	---	0.00	30.789 
07:35	-1.0	-1.0	-1.0	78	-6.2	0	0	---	0.00	30.789 
07:40	-0.8	-0.8	-0.8	78	-6.0	0	0	---	0.00	30.789 
07:45	-0.6	-0.6	-0.6	78	-5.8	0	0	---	0.00	30.791 
07:50	-0.6	-0.6	-0.6	78	-5.8	0	0	---	0.00	30.791 
07:55	-0.4	-0.4	-0.4	78	-5.6	0	0	---	0.00	30.791 
08:00	-0.2	-0.2	-0.2	78	-5.4	0	0	---	0.00	30.796 
08:05	0.1	0.1	0.1	78	-5.1	0	0	---	0.00	30.796 
08:10	0.7	0.7	0.7	79	-4.3	0	0	---	0.00	30.796 
08:15	1.1	1.1	1.1	79	-3.9	0	0	---	0.00	30.805 
08:20	1.8	1.8	1.8	79	-3.2	0	0	---	0.00	30.805 
08:25	2.2	2.2	2.2	79	-2.8	0	0	---	0.00	30.805 
08:30	2.8	2.8	2.8	80	-1.9	0	0	---	0.00	30.805 
08:35	3.5	3.5	3.5	80	-1.3	0	0	---	0.00	30.805 
08:40	3.9	3.9	3.9	79	-1.1	0	0	---	0.00	30.805 
08:45	4.5	4.5	4.5	80	-0.3	0	0	---	0.00	30.813 
08:50	5.4	5.4	5.4	81	0.9	0	0	---	0.00	30.813 
08:55	6.3	6.3	6.3	80	1.5	0	1	90	0.00	30.813 
09:00	6.9	6.9	6.9	78	1.5	0	1	90	0.00	30.810 
09:05	7.4	7.4	7.4	78	2.0	0	2	90	0.00	30.810 
09:10	8.4	8.4	8.4	75	2.1	0	3	90	0.00	30.810 
09:15	9.2	9.2	9.2	71	1.7	1	3	90	0.00	30.811 
09:20	10.0	10.0	10.0	67	1.3	1	3	90	0.00	30.811 
09:25	11.1	11.1	11.1	64	1.3	0	2	90	0.00	30.811 
09:30	11.9	11.9	11.9	61	1.1	1	3	90	0.00	30.809 
09:35	12.9	12.9	12.9	59	1.3	0	2	90	0.00	30.809 
09:40	13.5	13.5	13.5	57	1.1	1	3	90	0.00	30.809 
09:45	13.8	13.8	13.8	55	0.7	1	3	90	0.00	30.806 
09:50	14.0	14.0	14.0	55	0.8	1	3	90	0.00	30.806 
09:55	14.4	14.4	14.4	55	1.2	0	3	68	0.00	30.806 
10:00	14.9	14.9	14.9	53	0.9	1	4	68	0.00	30.803 
10:05	14.9	14.9	14.9	51	0.1	1	4	90	0.00	30.803 
10:10	14.8	14.8	14.8	52	0.4	1	4	90	0.00	30.803 
10:15	14.4	14.4	14.4	53	0.4	1	4	90	0.00	30.799 
10:20	14.3	14.3	14.3	54	0.7	2	4	90	0.00	30.799 
10:25	14.3	14.3	14.3	55	1.1	1	4	68	0.00	30.799 
10:30	14.8	14.8	14.8	55	1.6	1	4	68	0.00	30.796 
10:35	14.9	14.9	14.9	56	2.1	2	5	90	0.00	30.796 
10:40	15.1	15.1	15.1	55	1.9	1	5	90	0.00	30.796 
10:45	15.4	15.4	15.4	55	2.2	1	4	90	0.00	30.796 
10:50	15.9	15.9	15.9	54	2.2	0	3	90	0.00	30.796 
10:55	16.2	16.2	16.2	53	2.1	1	5	90	0.00	30.796 
11:00	16.5	16.5	16.5	53	2.4	1	4	90	0.00	30.794 
11:05	17.0	17.0	17.0	52	2.4	0	2	90	0.00	30.794 
11:10	17.8	17.8	17.8	51	2.8	1	5	90	0.00	30.794 
11:15	17.8	17.8	17.8	50	2.3	1	5	90	0.00	30.794 
11:20	17.8	17.8	17.8	50	2.3	1	3	112	0.00	30.794 
11:25	18.3	18.3	18.3	51	3.2	1	3	90	0.00	30.794 
11:30	19.2	19.2	19.2	49	3.2	1	3	112	0.00	30.792 
11:35	19.7	19.7	19.7	47	2.8	1	3	112	0.00	30.792 
11:40	19.2	19.2	19.2	48	2.8	2	6	90	0.00	30.792 
11:45	18.9	18.9	18.9	50	3.4	1	3	90	0.00	30.790 
11:50	19.1	19.1	19.1	50	3.6	1	4	90	0.00	30.790 
11:55	19.4	19.4	19.4	50	3.8	1	4	112	0.00	30.790 
12:00	19.1	19.1	19.1	50	3.6	2	5	90	0.00	30.789 
12:05	18.9	18.9	18.9	51	3.8	2	5	90	0.00	30.789 
12:10	18.9	18.9	18.9	50	3.4	2	7	90	0.00	30.789 
12:15	18.9	18.9	18.9	51	3.8	2	9	135	0.00	30.788 
12:20	18.9	18.9	18.9	51	3.8	1	5	90	0.00	30.788 
12:25	19.4	19.4	19.4	50	3.8	1	4	112	0.00	30.788 
12:30	19.7	19.7	19.7	49	3.7	2	4	90	0.00	30.783 
12:35	20.0	20.0	20.0	49	3.9	1	3	135	0.00	30.783 
12:40	19.7	19.7	19.7	49	3.7	2	7	90	0.00	30.783 
12:45	19.9	19.9	19.9	49	3.9	2	5	112	0.00	30.777 
12:50	20.0	20.0	20.0	49	3.9	1	5	112	0.00	30.777 
12:55	20.3	20.3	20.3	48	3.8	1	3	112	0.00	30.777 
13:00	20.3	20.3	20.3	48	3.8	2	6	90	0.00	30.767 
13:05	20.0	20.0	20.0	49	3.9	2	5	90	0.00	30.767 
13:10	20.0	20.0	20.0	48	3.5	2	7	112	0.00	30.767 
13:15	19.9	19.9	19.9	49	3.9	2	6	90	0.00	30.758 
13:20	20.0	20.0	20.0	47	3.0	1	4	90	0.00	30.758 
13:25	20.3	20.3	20.3	47	3.3	1	3	90	0.00	30.758 
13:30	20.2	20.2	20.2	48	3.7	2	6	90	0.00	30.746 
13:35	20.0	20.0	20.0	46	2.6	2	6	90	0.00	30.746 
13:40	19.5	13.6	19.5	47	2.6	4	10	90	0.00	30.746 
13:45	19.4	19.4	19.4	48	3.0	3	6	90	0.00	30.732 
13:50	19.4	19.4	19.4	48	3.0	2	7	90	0.00	30.732 
13:55	19.5	19.5	19.5	47	2.6	2	7	90	0.00	30.732 
14:00	19.7	19.7	19.7	48	3.2	1	4	90	0.00	30.715 
14:05	20.0	20.0	20.0	46	2.6	2	6	90	0.00	30.715 
14:10	19.9	19.9	19.9	47	3.0	1	5	90	0.00	30.715 
14:15	20.0	20.0	20.0	47	3.0	1	6	90	0.00	30.715 
14:20	20.2	20.2	20.2	47	3.2	1	4	112	0.00	30.715 
14:25	20.0	20.0	20.0	47	3.0	3	7	90	0.00	30.715 
14:30	19.7	19.7	19.7	49	3.7	3	7	90	0.00	30.711 
14:35	19.7	19.7	19.7	49	3.7	2	7	90	0.00	30.711 
14:40	19.9	19.9	19.9	49	3.9	2	5	90	0.00	30.711 
14:45	20.0	20.0	20.0	48	3.5	1	5	90	0.00	30.700 
14:50	20.0	20.0	20.0	48	3.5	2	5	112	0.00	30.700 
14:55	19.9	14.1	19.9	49	3.9	4	8	90	0.00	30.700 
15:00	19.9	19.9	19.9	48	3.4	2	9	112	0.00	30.699 
15:05	20.0	20.0	20.0	49	3.9	2	5	90	0.00	30.699 
15:10	19.9	19.9	19.9	47	3.0	2	6	90	0.00	30.699 
15:15	19.9	19.9	19.9	48	3.4	2	6	90	0.00	30.699 
15:20	19.9	19.9	19.9	49	3.9	3	6	90	0.00	30.699 
15:25	19.9	19.9	19.9	49	3.9	2	5	90	0.00	30.699 
15:30	19.9	19.9	19.9	49	3.9	2	6	112	0.00	30.690 
15:35	19.7	19.7	19.7	47	2.8	2	9	90	0.00	30.690 
15:40	19.7	19.7	19.7	48	3.2	2	9	90	0.00	30.690 
15:45	19.7	19.7	19.7	47	2.8	2	6	90	0.00	30.683 
15:50	19.7	19.7	19.7	46	2.3	3	9	90	0.00	30.683 
15:55	19.5	19.5	19.5	48	3.0	2	6	112	0.00	30.683 
16:00	19.5	19.5	19.5	47	2.6	3	7	90	0.00	30.671 
16:05	19.4	13.5	19.4	47	2.5	4	7	90	0.00	30.671 
16:10	19.4	19.4	19.4	47	2.5	3	9	90	0.00	30.671 
16:15	19.4	19.4	19.4	47	2.5	2	6	90	0.00	30.677 
16:20	19.4	19.4	19.4	47	2.5	1	5	112	0.00	30.677 
16:25	19.4	19.4	19.4	48	3.0	1	3	112	0.00	30.677 
16:30	19.4	19.4	19.4	48	3.0	3	6	90	0.00	30.672 
16:35	19.2	19.2	19.2	49	3.2	3	7	90	0.00	30.672 
16:40	19.4	19.4	19.4	49	3.4	2	6	112	0.00	30.672 
16:45	19.4	19.4	19.4	49	3.4	2	6	112	0.00	30.667 
16:50	19.1	13.2	19.1	50	3.6	4	9	90	0.00	30.667 
16:55	18.8	18.8	18.8	51	3.7	3	7	90	0.00	30.667 
17:00	18.6	18.6	18.6	50	3.1	3	7	90	0.00	30.658 
17:05	18.4	18.4	18.4	50	2.9	3	7	90	0.00	30.658 
17:10	18.3	18.3	18.3	53	4.1	3	6	112	0.00	30.658 
17:15	18.3	18.3	18.3	51	3.2	2	5	112	0.00	30.656 
17:20	18.4	18.4	18.4	51	3.3	2	9	90	0.00	30.656 
17:25	18.4	18.4	18.4	51	3.3	2	5	90	0.00	30.656 
17:30	18.4	18.4	18.4	51	3.3	2	5	90	0.00	30.655 
17:35	18.4	18.4	18.4	52	3.8	2	4	90	0.00	30.655 
17:40	18.3	18.3	18.3	50	2.8	3	5	90	0.00	30.655 
17:45	18.1	18.1	18.1	51	3.1	2	6	90	0.00	30.655 
17:50	18.1	18.1	18.1	51	3.1	2	6	90	0.00	30.655 
17:55	18.1	18.1	18.1	51	3.1	3	6	90	0.00	30.655 
18:00	18.0	18.0	18.0	51	3.0	2	5	90	0.00	30.653 
18:05	18.0	18.0	18.0	51	3.0	2	5	90	0.00	30.653 
18:10	18.0	18.0	18.0	51	3.0	2	7	90	0.00	30.653 
18:15	18.0	18.0	18.0	52	3.4	1	6	90	0.00	30.659 
18:20	17.8	17.8	17.8	51	2.8	2	5	90	0.00	30.659 
18:25	17.8	17.8	17.8	52	3.2	1	3	90	0.00	30.659 
18:30	17.8	17.8	17.8	53	3.6	1	3	90	0.00	30.654 
18:35	17.8	17.8	17.8	53	3.6	1	2	90	0.00	30.654 
18:40	17.8	17.8	17.8	52	3.2	1	4	90	0.00	30.654 
18:45	17.8	17.8	17.8	53	3.6	1	4	90	0.00	30.644 
18:50	17.8	17.8	17.8	51	2.8	3	6	90	0.00	30.644 
18:55	17.7	17.7	17.7	52	3.1	2	5	112	0.00	30.644 
19:00	17.7	17.7	17.7	52	3.1	2	5	90	0.00	30.643 
19:05	17.7	17.7	17.7	52	3.1	2	4	90	0.00	30.643 
19:10	17.7	17.7	17.7	52	3.1	2	6	112	0.00	30.643 
19:15	17.7	17.7	17.7	52	3.1	2	5	68	0.00	30.633 
19:20	17.5	17.5	17.5	53	3.3	2	6	90	0.00	30.633 
19:25	17.5	17.5	17.5	54	3.7	3	7	112	0.00	30.633 
19:30	17.5	17.5	17.5	54	3.7	2	6	90	0.00	30.622 
19:35	17.5	17.5	17.5	54	3.7	2	6	90	0.00	30.622 
19:40	17.5	17.5	17.5	55	4.1	2	4	90	0.00	30.622 
19:45	17.5	17.5	17.5	55	4.1	2	4	112	0.00	30.622 
19:50	17.3	17.3	17.3	55	3.9	2	6	68	0.00	30.622 
19:55	17.3	17.3	17.3	55	3.9	3	6	90	0.00	30.622 
20:00	17.3	17.3	17.3	56	4.3	1	3	90	0.00	30.618 
20:05	17.3	17.3	17.3	55	3.9	2	5	90	0.00	30.618 
20:10	17.3	17.3	17.3	55	3.9	2	5	90	0.00	30.618 
20:15	17.3	17.3	17.3	55	3.9	2	7	90	0.00	30.604 
20:20	17.3	17.3	17.3	54	3.5	1	4	90	0.00	30.604 
20:25	17.3	17.3	17.3	54	3.5	1	4	90	0.00	30.604 
20:30	17.2	17.2	17.2	54	3.4	2	5	90	0.00	30.615 
20:35	17.2	17.2	17.2	54	3.4	1	4	90	0.00	30.615 
20:40	17.2	17.2	17.2	54	3.4	0	2	90	0.00	30.615 
20:45	17.2	17.2	17.2	54	3.4	1	2	90	0.00	30.621 
20:50	17.2	17.2	17.2	54	3.4	1	2	90	0.00	30.621 
20:55	17.2	17.2	17.2	54	3.4	1	6	90	0.00	30.621 
21:00	17.2	17.2	17.2	55	3.8	1	3	90	0.00	30.609 
21:05	17.2	17.2	17.2	55	3.8	1	4	90	0.00	30.609 
21:10	17.2	17.2	17.2	56	4.2	2	4	90	0.00	30.609 
21:15	17.0	17.0	17.0	57	4.4	2	5	90	0.00	30.593 
21:20	17.0	17.0	17.0	59	5.2	1	4	90	0.00	30.593 
21:25	16.9	16.9	16.9	62	6.2	1	3	90	0.00	30.593 
21:30	16.5	16.5	16.5	65	6.8	1	4	90	0.00	30.599 
21:35	16.4	16.4	16.4	68	7.7	2	5	90	0.00	30.599 
21:40	16.1	16.1	16.1	70	8.1	2	5	90	0.00	30.599 
21:45	15.9	15.9	15.9	72	8.5	1	4	90	0.00	30.594 
21:50	15.9	15.9	15.9	73	8.8	2	5	90	0.00	30.594 
21:55	15.7	15.7	15.7	75	9.2	1	4	90	0.00	30.594 
22:00	15.7	15.7	15.7	76	9.5	1	3	90	0.00	30.601 
22:05	15.6	15.6	15.6	77	9.7	1	3	90	0.00	30.601 
22:10	15.6	15.6	15.6	78	10.0	1	3	90	0.00	30.601 
22:15	15.6	15.6	15.6	79	10.3	1	3	90	0.00	30.597 
22:20	15.4	15.4	15.4	79	10.1	1	3	90	0.00	30.597 
22:25	15.4	15.4	15.4	80	10.4	1	3	90	0.00	30.597 
22:30	15.4	15.4	15.4	80	10.4	1	3	90	0.00	30.592 
22:35	15.4	15.4	15.4	81	10.6	0	3	90	0.00	30.592 
22:40	15.4	15.4	15.4	81	10.6	1	3	90	0.00	30.592 
22:45	15.4	15.4	15.4	82	10.9	0	2	90	0.00	30.591 
22:50	15.4	15.4	15.4	82	10.9	0	2	90	0.00	30.591 
22:55	15.4	15.4	15.4	82	10.9	1	3	90	0.00	30.591 
23:00	15.4	15.4	15.4	82	10.9	0	3	90	0.00	30.576 
23:05	15.4	15.4	15.4	83	11.2	1	3	90	0.00	30.576 
23:10	15.4	15.4	15.4	83	11.2	1	3	90	0.00	30.576 
23:15	15.4	15.4	15.4	83	11.2	1	3	90	0.00	30.563 
23:20	15.4	15.4	15.4	83	11.2	1	3	90	0.00	30.563 
23:25	15.4	15.4	15.4	84	11.4	1	4	90	0.00	30.563 
23:30	15.4	15.4	15.4	84	11.4	1	3	90	0.00	30.546 
23:35	15.4	15.4	15.4	84	11.4	0	2	90	0.00	30.546 
23:40	15.4	15.4	15.4	84	11.4	1	2	90	0.00	30.546 
23:45	15.4	15.4	15.4	84	11.4	1	3	90	0.00	30.543 
23:50	15.4	15.4	15.4	84	11.4	1	4	90	0.00	30.543 
23:55	15.4	15.4	15.4	84	11.4	1	3	90	0.00	30.543 

CoCoRaHS
IN-AL-39
A2 Web Hosting
Creative Commons License
GoDaddy
search engine by freefind advanced

loaded 2018-11-20 15:25:46 • last modified 2010-11-18 10:43:29
Privacy PolicyDisclaimer
• wx.awcolley.com is powered by PmWiki v.2002016 •
• all content (unless otherwise noted) © 2018 A W Colley